Time;durP1;ratioP1;P1;durP2;ratioP2;P2;SDS_P1;SDS_P2;PMS_P1;PMS_P2;Temp;Humidity;BMP_temperature;BMP_pressure;BME280_temperature;BME280_humidity;BME280_pressure;Samples;Min_cycle;Max_cycle;Signal;HPM_P1;HPM_P2
2022/04/27 00:01:51;;;;;;;7.22;4.20;;;;;;;13.83;47.94;101449.63;4897573;29;20491;-89
2022/04/27 00:04:16;;;;;;;5.60;4.32;;;;;;;13.88;48.29;101452.84;4912931;29;20036;-86
2022/04/27 00:06:42;;;;;;;6.03;4.05;;;;;;;13.96;47.91;101457.63;4912967;29;20025;-87
2022/04/27 00:09:07;;;;;;;5.30;3.75;;;;;;;13.60;48.46;101440.56;4898194;29;20080;-87
2022/04/27 00:11:33;;;;;;;7.35;4.40;;;;;;;13.65;48.39;101448.19;4896797;29;20033;-87
2022/04/27 00:14:03;;;;;;;4.28;3.28;;;;;;;13.37;49.00;101452.59;4898355;29;20466;-87
2022/04/27 00:16:29;;;;;;;10.32;4.38;;;;;;;13.39;49.12;101461.25;4911959;29;20460;-87
2022/04/27 00:18:54;;;;;;;6.57;3.95;;;;;;;13.38;49.09;101462.19;4898082;29;20016;-86
2022/04/27 00:21:20;;;;;;;5.35;3.80;;;;;;;13.41;49.08;101456.72;4897543;29;20171;-87
2022/04/27 00:23:45;;;;;;;7.53;3.95;;;;;;;13.32;49.43;101459.94;4897314;29;20040;-87
2022/04/27 00:26:11;;;;;;;7.55;3.80;;;;;;;13.37;49.51;101468.41;4911711;29;20032;-87
2022/04/27 00:28:36;;;;;;;4.93;3.58;;;;;;;13.36;49.47;101457.97;4897518;29;20024;-87
2022/04/27 00:31:01;;;;;;;7.78;4.25;;;;;;;13.24;49.78;101456.91;4897305;29;20040;-87
2022/04/27 00:33:27;;;;;;;8.27;4.30;;;;;;;13.21;50.09;101462.34;4897529;29;20288;-87
2022/04/27 00:35:52;;;;;;;5.28;4.07;;;;;;;13.11;50.51;101462.06;4897686;29;20440;-87
2022/04/27 00:38:18;;;;;;;5.20;3.97;;;;;;;13.09;50.59;101469.22;4897598;29;20043;-87
2022/04/27 00:40:44;;;;;;;10.15;3.70;;;;;;;13.10;50.71;101460.41;4897013;29;20020;-87
2022/04/27 00:43:09;;;;;;;5.43;3.92;;;;;;;13.06;50.57;101467.66;4897671;29;20495;-88
2022/04/27 00:45:35;;;;;;;7.22;3.63;;;;;;;12.91;50.97;101463.31;4897168;29;20043;-87
2022/04/27 00:48:00;;;;;;;9.45;3.78;;;;;;;12.83;51.44;101468.19;4897399;29;20033;-87
2022/04/27 00:50:26;;;;;;;5.35;3.78;;;;;;;12.49;52.69;101464.94;4897280;29;20052;-87
2022/04/27 00:52:52;;;;;;;6.82;3.67;;;;;;;12.59;52.26;101458.19;4897411;29;20049;-88
2022/04/27 00:55:18;;;;;;;5.50;2.83;;;;;;;12.35;53.07;101470.19;4897516;29;20160;-87
2022/04/27 00:57:46;;;;;;;5.68;3.95;;;;;;;12.27;53.22;101465.38;4897704;29;20044;-88
2022/04/27 01:00:14;;;;;;;5.13;3.35;;;;;;;12.65;52.27;101465.72;4895514;29;20037;-87
2022/04/27 01:02:40;;;;;;;4.20;3.33;;;;;;;12.45;52.50;101473.97;4897044;29;20035;-87
2022/04/27 01:05:09;;;;;;;5.03;3.08;;;;;;;12.66;51.85;101461.31;4896516;29;20029;-88
2022/04/27 01:07:37;;;;;;;4.40;2.92;;;;;;;12.79;51.60;101471.97;4896457;29;20055;-88
2022/04/27 01:10:03;;;;;;;6.93;3.45;;;;;;;12.53;51.91;101461.19;4897272;29;20085;-88
2022/04/27 01:12:29;;;;;;;3.13;2.45;;;;;;;12.66;52.06;101469.22;4911905;29;20032;-88
2022/04/27 01:14:54;;;;;;;4.75;2.65;;;;;;;12.68;52.00;101468.19;4899292;29;20043;-88
2022/04/27 01:17:22;;;;;;;5.40;2.95;;;;;;;12.77;51.63;101468.56;4900684;29;20064;-88
2022/04/27 01:19:48;;;;;;;6.00;3.00;;;;;;;12.58;52.19;101463.53;4900757;29;20077;-87
2022/04/27 01:22:14;;;;;;;3.30;2.72;;;;;;;12.69;51.87;101472.50;4900476;29;20029;-87
2022/04/27 01:24:40;;;;;;;3.08;2.78;;;;;;;12.59;52.10;101466.09;4900574;29;20024;-88
2022/04/27 01:27:06;;;;;;;7.43;3.10;;;;;;;12.42;52.64;101474.13;4900759;29;20107;-89
2022/04/27 01:29:32;;;;;;;5.53;3.63;;;;;;;12.15;53.31;101482.72;4900592;29;20116;-88
2022/04/27 01:32:00;;;;;;;4.72;3.28;;;;;;;12.21;53.17;101482.38;4899007;29;20031;-88
2022/04/27 01:34:26;;;;;;;4.68;3.70;;;;;;;12.39;52.78;101490.97;4900438;29;20419;-89
2022/04/27 01:36:52;;;;;;;5.22;3.28;;;;;;;12.20;53.07;101485.91;4900814;29;20025;-88
2022/04/27 01:39:17;;;;;;;6.40;3.10;;;;;;;12.22;53.38;101499.00;4900475;29;20055;-89
2022/04/27 01:41:43;;;;;;;5.63;3.03;;;;;;;12.38;52.98;101501.59;4900445;29;20064;-88
2022/04/27 01:44:08;;;;;;;4.15;3.13;;;;;;;12.23;53.42;101501.56;4914793;29;20089;-89
2022/04/27 01:46:34;;;;;;;5.60;3.22;;;;;;;12.40;53.02;101507.63;4899248;29;20048;-89
2022/04/27 01:49:00;;;;;;;3.58;2.63;;;;;;;12.23;53.09;101500.72;4900315;29;20563;-88
2022/04/27 01:54:15;;;;;;;5.05;3.08;;;;;;;11.95;54.34;101499.66;4900299;29;20499;-88
2022/04/27 01:56:48;;;;;;;6.10;3.63;;;;;;;12.12;54.17;101511.84;4900966;29;20032;-88
2022/04/27 01:59:14;;;;;;;13.43;4.32;;;;;;;11.93;54.48;101511.19;4899920;29;20144;-89
2022/04/27 02:01:41;;;;;;;6.43;3.75;;;;;;;11.73;54.91;101510.50;4888324;29;20544;-89
2022/04/27 02:04:07;;;;;;;5.95;4.53;;;;;;;11.82;54.76;101512.59;4881615;29;20048;-89
2022/04/27 02:06:35;;;;;;;10.15;3.92;;;;;;;11.77;55.05;101514.66;4881181;29;20037;-88
2022/04/27 02:09:02;;;;;;;9.45;4.10;;;;;;;11.60;55.60;101501.56;4881155;29;20085;-88
2022/04/27 02:11:28;;;;;;;7.38;3.85;;;;;;;11.62;55.57;101516.31;4880073;29;20032;-88
2022/04/27 02:13:55;;;;;;;4.47;3.63;;;;;;;11.32;56.11;101518.84;4881387;29;20029;-89
2022/04/27 02:16:24;;;;;;;6.72;3.92;;;;;;;11.50;56.02;101509.13;4890920;29;20524;-89
2022/04/27 02:18:50;;;;;;;4.80;3.80;;;;;;;11.47;55.95;101512.78;4900458;29;20490;-89
2022/04/27 02:21:16;;;;;;;6.22;3.83;;;;;;;11.22;56.70;101513.22;4899756;29;20025;-88
2022/04/27 02:23:42;;;;;;;6.75;4.72;;;;;;;11.08;57.08;101516.56;4914564;29;20029;-89
2022/04/27 02:26:07;;;;;;;6.15;4.22;;;;;;;11.17;56.83;101514.38;4911750;29;20070;-88
2022/04/27 02:28:33;;;;;;;7.10;3.90;;;;;;;11.29;56.66;101514.59;4915502;29;20028;-88
2022/04/27 02:30:58;;;;;;;6.07;3.83;;;;;;;11.20;56.86;101520.34;4907485;29;20036;-88
2022/04/27 02:33:24;;;;;;;8.77;4.60;;;;;;;11.27;56.69;101519.06;4898941;29;20037;-88
2022/04/27 02:35:50;;;;;;;6.75;4.28;;;;;;;11.51;55.85;101524.81;4897654;29;20074;-88
2022/04/27 02:38:15;;;;;;;7.25;4.45;;;;;;;11.14;56.96;101527.69;4897652;29;20097;-88
2022/04/27 02:40:40;;;;;;;5.07;4.10;;;;;;;11.47;56.59;101525.03;4899341;29;20546;-89
2022/04/27 02:43:06;;;;;;;9.63;3.90;;;;;;;11.56;56.16;101526.34;4913565;29;20200;-88
2022/04/27 02:45:31;;;;;;;6.00;4.00;;;;;;;11.54;56.50;101522.94;4899046;29;20032;-88
2022/04/27 02:47:56;;;;;;;8.32;4.07;;;;;;;11.32;57.33;101524.09;4897730;29;20028;-89
2022/04/27 02:53:06;;;;;;;6.05;4.20;;;;;;;11.35;57.07;101534.44;4899132;29;20088;-88
2022/04/27 02:55:31;;;;;;;5.60;4.03;;;;;;;11.46;57.15;101526.84;4913463;29;20111;-88
2022/04/27 02:57:56;;;;;;;6.80;4.25;;;;;;;11.58;56.48;101527.13;4899031;29;20027;-88
2022/04/27 03:00:22;;;;;;;8.35;3.85;;;;;;;11.57;56.53;101533.28;4898977;29;20181;-88
2022/04/27 03:02:47;;;;;;;5.45;4.03;;;;;;;11.32;57.32;101529.34;4898656;29;20017;-88
2022/04/27 03:05:12;;;;;;;5.50;3.90;;;;;;;11.31;57.17;101525.03;4897393;29;20029;-88
2022/04/27 03:07:38;;;;;;;6.85;4.55;;;;;;;11.43;57.35;101524.38;4897592;29;20039;-89
2022/04/27 03:10:04;;;;;;;4.85;4.13;;;;;;;11.31;57.92;101530.28;4898832;29;20050;-88
2022/04/27 03:12:29;;;;;;;7.45;4.38;;;;;;;11.17;57.81;101519.66;4898530;29;20365;-88
2022/04/27 03:14:55;;;;;;;6.93;4.03;;;;;;;11.30;57.49;101532.06;4898767;29;20040;-88
2022/04/27 03:17:20;;;;;;;5.28;3.88;;;;;;;11.43;57.43;101523.50;4913121;29;20500;-88
2022/04/27 03:19:47;;;;;;;6.78;4.57;;;;;;;11.45;57.35;101530.41;4897568;29;20475;-88
2022/04/27 03:22:12;;;;;;;9.43;5.72;;;;;;;11.22;58.08;101520.28;4898283;29;20032;-88
2022/04/27 03:24:38;;;;;;;8.15;4.88;;;;;;;11.28;58.23;101519.94;4912883;29;20040;-88
2022/04/27 03:27:04;;;;;;;13.95;9.15;;;;;;;11.23;58.08;101517.53;4898213;29;20024;-88
2022/04/27 03:29:29;;;;;;;17.90;11.63;;;;;;;11.04;58.30;101514.19;4898965;29;20048;-88
2022/04/27 03:31:54;;;;;;;19.20;12.95;;;;;;;11.28;57.77;101522.56;4899055;29;20383;-88
2022/04/27 03:34:20;;;;;;;11.10;7.57;;;;;;;10.93;58.24;101503.38;4899477;29;20410;-88
2022/04/27 03:36:45;;;;;;;9.05;5.72;;;;;;;11.02;58.03;101511.66;4899203;29;20466;-88
2022/04/27 03:39:10;;;;;;;6.97;4.20;;;;;;;11.17;57.68;101519.66;4915097;29;20531;-88
2022/04/27 03:41:36;;;;;;;6.78;4.55;;;;;;;11.11;58.07;101526.91;4898626;29;20055;-88
2022/04/27 03:44:01;;;;;;;14.10;6.45;;;;;;;11.09;58.32;101518.25;4913383;29;20032;-88
2022/04/27 03:46:26;;;;;;;8.65;5.40;;;;;;;11.15;58.37;101527.59;4897325;29;20064;-88
2022/04/27 03:48:52;;;;;;;8.00;4.93;;;;;;;11.09;58.12;101530.56;4898994;29;20099;-88
2022/04/27 03:51:17;;;;;;;5.95;4.88;;;;;;;11.08;58.42;101531.50;4898562;29;20088;-88
2022/04/27 03:53:44;;;;;;;5.90;4.43;;;;;;;10.89;59.16;101539.47;4898692;29;20020;-88
2022/04/27 03:56:09;;;;;;;6.68;4.32;;;;;;;10.98;58.41;101541.66;4897242;29;20040;-88
2022/04/27 03:58:35;;;;;;;4.82;3.50;;;;;;;11.02;58.23;101543.19;4897521;29;20036;-88
2022/04/27 04:01:00;;;;;;;7.60;4.53;;;;;;;10.94;58.53;101536.59;4898301;29;20388;-88
2022/04/27 04:03:25;;;;;;;8.70;4.68;;;;;;;10.78;58.71;101545.28;4898297;29;20464;-89
2022/04/27 04:05:51;;;;;;;8.05;4.55;;;;;;;10.93;58.42;101543.66;4898688;29;20662;-89
2022/04/27 04:08:16;;;;;;;6.00;4.05;;;;;;;10.74;59.39;101548.97;4898159;29;20067;-89
2022/04/27 04:10:41;;;;;;;8.77;5.15;;;;;;;10.81;58.71;101549.53;4898147;29;20047;-88
2022/04/27 04:13:07;;;;;;;6.60;4.80;;;;;;;10.75;59.48;101541.97;4898039;29;20028;-88
2022/04/27 04:15:37;;;;;;;8.20;4.60;;;;;;;10.87;58.89;101546.59;4897330;29;20080;-88
2022/04/27 04:18:02;;;;;;;8.07;5.18;;;;;;;10.77;58.89;101543.56;4912328;29;20387;-89
2022/04/27 04:20:28;;;;;;;8.35;4.70;;;;;;;10.83;58.50;101543.25;4897831;29;20116;-88
2022/04/27 04:22:53;;;;;;;7.95;4.50;;;;;;;10.89;58.54;101540.31;4897579;29;20107;-88
2022/04/27 04:28:35;;;;;;;7.18;4.82;;;;;;;10.84;58.37;101557.25;4897681;29;20115;-88
2022/04/27 04:30:56;;;;;;;8.48;4.97;;;;;;;10.85;58.43;101559.78;4897875;29;20116;-88
2022/04/27 04:33:21;;;;;;;8.05;5.07;;;;;;;10.70;58.77;101550.94;4897430;29;20025;-88
2022/04/27 04:35:47;;;;;;;7.53;5.35;;;;;;;10.75;58.50;101560.34;4897935;29;20055;-88
2022/04/27 04:38:13;;;;;;;6.65;4.82;;;;;;;10.74;58.89;101558.63;4912062;29;20081;-88
2022/04/27 04:40:38;;;;;;;8.32;5.35;;;;;;;10.69;58.88;101564.13;4897553;29;20024;-88
2022/04/27 04:43:04;;;;;;;8.40;5.18;;;;;;;10.41;59.10;101559.41;4897620;29;20020;-88
2022/04/27 04:45:29;;;;;;;8.27;5.10;;;;;;;10.57;59.42;101557.72;4897580;29;20216;-88
2022/04/27 04:47:54;;;;;;;9.52;5.57;;;;;;;10.58;59.22;101569.91;4892481;29;20111;-88
2022/04/27 04:50:20;;;;;;;8.63;5.00;;;;;;;10.49;59.28;101562.50;4881043;29;20469;-88
2022/04/27 04:52:46;;;;;;;7.00;4.90;;;;;;;10.51;59.72;101573.78;4882551;29;20043;-88
2022/04/27 04:55:11;;;;;;;7.82;5.05;;;;;;;10.45;59.70;101574.09;4882428;29;20369;-89
2022/04/27 04:57:37;;;;;;;8.40;5.30;;;;;;;10.49;59.69;101573.84;4882594;29;20092;-89
2022/04/27 05:00:04;;;;;;;8.43;5.15;;;;;;;10.52;59.92;101578.09;4882564;29;20036;-88
2022/04/27 05:02:31;;;;;;;10.77;5.68;;;;;;;10.51;60.13;101579.88;4882519;29;20112;-88
2022/04/27 05:04:57;;;;;;;9.52;5.22;;;;;;;10.63;59.69;101583.66;4882425;29;20116;-88
2022/04/27 05:07:22;;;;;;;6.32;4.28;;;;;;;10.66;59.72;101587.91;4882244;29;20462;-88
2022/04/27 05:09:47;;;;;;;7.45;4.90;;;;;;;10.77;59.53;101584.78;4882003;29;20033;-88
2022/04/27 05:12:13;;;;;;;9.38;5.10;;;;;;;10.66;59.92;101582.66;4882133;29;20033;-87
2022/04/27 05:14:38;;;;;;;8.40;5.07;;;;;;;10.73;59.76;101594.56;4882089;29;20025;-87
2022/04/27 05:17:04;;;;;;;8.55;5.15;;;;;;;10.90;58.63;101593.75;4908539;29;20475;-87
2022/04/27 05:19:29;;;;;;;7.05;4.82;;;;;;;10.94;58.74;101594.41;4900806;29;20295;-88
2022/04/27 05:21:55;;;;;;;6.90;5.15;;;;;;;10.94;59.09;101600.53;4900652;29;20063;-87
2022/04/27 05:24:20;;;;;;;14.20;5.03;;;;;;;10.96;58.71;101596.06;4903173;29;20456;-86
2022/04/27 05:26:45;;;;;;;8.00;5.00;;;;;;;10.97;59.09;101595.13;4918951;29;20067;-87
2022/04/27 05:31:55;;;;;;;6.75;4.45;;;;;;;11.06;58.41;101596.44;4918841;29;20398;-85
2022/04/27 05:34:25;;;;;;;8.32;4.93;;;;;;;10.96;58.61;101595.19;4919057;29;20111;-86
2022/04/27 05:36:51;;;;;;;14.43;6.57;;;;;;;11.13;58.24;101607.47;4907915;29;20051;-86
2022/04/27 05:39:18;;;;;;;9.18;5.05;;;;;;;11.14;58.49;101611.78;4912000;29;20468;-85
2022/04/27 05:41:43;;;;;;;6.82;4.80;;;;;;;11.36;57.88;101614.19;4919139;29;20024;-85
2022/04/27 05:44:09;;;;;;;9.68;5.05;;;;;;;11.42;57.53;101614.72;4917411;29;20032;-86
2022/04/27 05:46:36;;;;;;;7.10;4.80;;;;;;;11.54;57.40;101621.13;4910607;29;20115;-86
2022/04/27 05:49:01;;;;;;;6.68;4.28;;;;;;;11.57;57.40;101622.72;4898997;29;20028;-85
2022/04/27 05:51:27;;;;;;;9.57;4.70;;;;;;;11.46;57.85;101621.50;4911788;29;20040;-85
2022/04/27 05:53:52;;;;;;;10.55;5.07;;;;;;;11.41;57.91;101623.53;4898462;29;20164;-85
2022/04/27 05:56:19;;;;;;;8.45;4.97;;;;;;;11.35;58.54;101629.09;4899204;29;20065;-84
2022/04/27 05:58:44;;;;;;;6.78;4.38;;;;;;;11.52;58.15;101626.44;4899774;29;20092;-86
2022/04/27 06:01:11;;;;;;;7.43;4.57;;;;;;;11.45;58.07;101632.09;4899217;29;20100;-85
2022/04/27 06:03:37;;;;;;;6.90;4.30;;;;;;;11.82;57.26;101628.38;4899687;29;20617;-85
2022/04/27 06:06:02;;;;;;;6.15;4.38;;;;;;;11.93;57.22;101632.25;4912958;29;20115;-85
2022/04/27 06:08:28;;;;;;;8.10;4.20;;;;;;;11.95;57.02;101646.16;4901679;29;20071;-86
2022/04/27 06:10:53;;;;;;;8.45;4.45;;;;;;;11.87;57.29;101641.31;4898891;29;20041;-86
2022/04/27 06:13:18;;;;;;;6.70;4.47;;;;;;;12.00;57.15;101647.63;4912982;29;20029;-86
2022/04/27 06:15:44;;;;;;;7.57;4.10;;;;;;;12.04;56.92;101650.94;4899470;29;20060;-85
2022/04/27 06:18:09;;;;;;;8.57;4.35;;;;;;;12.22;56.14;101642.06;4899967;29;20048;-86
2022/04/27 06:20:34;;;;;;;6.93;4.43;;;;;;;12.30;56.19;101650.38;4899157;29;20020;-86
2022/04/27 06:23:00;;;;;;;6.57;4.72;;;;;;;12.25;56.13;101656.84;4899319;29;20464;-86
2022/04/27 06:25:25;;;;;;;16.13;4.00;;;;;;;12.43;55.89;101662.88;4898870;29;20567;-85
2022/04/27 06:27:51;;;;;;;7.85;4.05;;;;;;;12.34;55.65;101655.47;4899461;29;20029;-85
2022/04/27 06:30:17;;;;;;;10.38;5.53;;;;;;;12.50;55.74;101664.22;4898380;29;20547;-86
2022/04/27 06:32:43;;;;;;;6.53;4.28;;;;;;;12.34;56.04;101658.09;4898422;29;20029;-85
2022/04/27 06:35:12;;;;;;;8.95;4.13;;;;;;;12.45;55.65;101669.75;4905648;29;20040;-86
2022/04/27 06:37:38;;;;;;;7.05;4.22;;;;;;;12.70;55.30;101674.50;4906282;29;20028;-85
2022/04/27 06:40:05;;;;;;;7.13;4.10;;;;;;;12.56;55.31;101663.00;4904698;29;20028;-85
2022/04/27 06:42:30;;;;;;;7.78;4.38;;;;;;;12.58;55.60;101671.69;4898630;29;20028;-87
2022/04/27 06:44:59;;;;;;;6.97;3.67;;;;;;;12.57;55.47;101670.00;4898873;29;20044;-86
2022/04/27 06:47:24;;;;;;;10.38;4.50;;;;;;;12.93;55.21;101679.38;4899507;29;20037;-86
2022/04/27 06:49:49;;;;;;;4.57;3.65;;;;;;;13.21;54.40;101678.63;4898789;29;20111;-85
2022/04/27 06:52:15;;;;;;;6.70;3.85;;;;;;;13.13;54.18;101675.59;4898547;29;20036;-85
2022/04/27 06:54:40;;;;;;;5.78;3.50;;;;;;;12.97;54.52;101681.75;4898067;29;20475;-85
2022/04/27 06:57:05;;;;;;;6.07;3.83;;;;;;;12.96;54.57;101679.22;4897549;29;20035;-85
2022/04/27 06:59:31;;;;;;;6.13;3.88;;;;;;;13.21;54.50;101678.63;4898450;29;20037;-85
2022/04/27 07:01:56;;;;;;;7.80;3.88;;;;;;;12.99;54.42;101687.78;4898651;29;20036;-85
2022/04/27 07:04:22;;;;;;;8.23;3.70;;;;;;;13.02;54.44;101692.03;4898512;29;20413;-87
2022/04/27 07:06:47;;;;;;;5.35;3.38;;;;;;;13.22;54.06;101690.88;4898351;29;20482;-85
2022/04/27 07:09:13;;;;;;;7.03;3.88;;;;;;;13.26;54.06;101690.59;4898307;29;20032;-87
2022/04/27 07:11:40;;;;;;;6.05;3.10;;;;;;;13.58;53.80;101692.28;4912430;29;20066;-84
2022/04/27 07:14:05;;;;;;;6.65;3.22;;;;;;;13.80;53.20;101691.84;4898619;29;20040;-84
2022/04/27 07:16:31;;;;;;;6.05;3.60;;;;;;;13.86;53.19;101702.03;4897478;29;20443;-84
2022/04/27 07:18:56;;;;;;;7.60;2.90;;;;;;;14.05;52.24;101696.47;4895734;29;20099;-87
2022/04/27 07:21:22;;;;;;;4.10;2.30;;;;;;;13.88;51.61;101700.13;4897876;29;20091;-86
2022/04/27 07:23:47;;;;;;;6.47;2.25;;;;;;;14.09;51.14;101713.81;4897179;29;20047;-87
2022/04/27 07:26:13;;;;;;;5.20;1.80;;;;;;;13.94;50.99;101713.00;4897839;29;20495;-85
2022/04/27 07:28:38;;;;;;;6.80;2.45;;;;;;;14.22;50.26;101727.97;4897687;29;20043;-86
2022/04/27 07:31:04;;;;;;;6.95;2.10;;;;;;;14.24;50.43;101720.81;4897191;29;20033;-86
2022/04/27 07:33:30;;;;;;;6.88;2.33;;;;;;;13.91;50.72;101715.81;4897403;29;20135;-85
2022/04/27 07:35:55;;;;;;;10.10;2.60;;;;;;;13.96;50.69;101721.66;4897904;29;20448;-85
2022/04/27 07:38:21;;;;;;;6.78;2.20;;;;;;;14.12;51.05;101734.78;4897664;29;20111;-86
2022/04/27 07:40:46;;;;;;;5.93;2.17;;;;;;;14.41;50.14;101727.66;4897874;29;20480;-86
2022/04/27 07:43:11;;;;;;;7.47;2.00;;;;;;;14.57;49.89;101724.06;4897878;29;20491;-86
2022/04/27 07:45:37;;;;;;;8.88;2.00;;;;;;;14.79;49.41;101731.47;4897532;29;20032;-85
2022/04/27 07:48:02;;;;;;;5.35;1.85;;;;;;;14.50;49.67;101736.81;4896736;29;20033;-85
2022/04/27 07:50:28;;;;;;;5.50;1.85;;;;;;;14.44;49.76;101737.19;4897093;29;20175;-86
2022/04/27 07:52:56;;;;;;;8.05;2.67;;;;;;;14.67;49.42;101736.63;4897399;29;20035;-86
2022/04/27 07:55:21;;;;;;;6.78;2.15;;;;;;;14.58;49.85;101737.19;4897679;29;20068;-86
2022/04/27 07:57:47;;;;;;;4.35;1.85;;;;;;;14.50;49.50;101743.91;4897170;29;20496;-86
2022/04/27 08:00:13;;;;;;;9.50;2.53;;;;;;;14.87;49.01;101731.84;4897416;29;20186;-86
2022/04/27 08:02:42;;;;;;;8.88;2.03;;;;;;;15.01;49.74;101738.88;4897340;29;20033;-86
2022/04/27 08:05:09;;;;;;;10.63;3.00;;;;;;;14.86;49.38;101740.72;4897434;29;20031;-86
2022/04/27 08:07:39;;;;;;;8.90;1.30;;;;;;;14.92;48.25;101742.94;4896103;29;20025;-86
2022/04/27 08:10:13;;;;;;;6.45;2.10;;;;;;;15.16;48.41;101740.50;4897424;29;20558;-86
2022/04/27 08:12:40;;;;;;;7.35;1.85;;;;;;;15.62;47.73;101744.50;4897250;29;20033;-86
2022/04/27 08:15:06;;;;;;;6.50;2.08;;;;;;;15.71;46.74;101748.34;4897449;29;20036;-86
2022/04/27 08:17:33;;;;;;;6.05;1.73;;;;;;;15.93;46.51;101743.28;4897202;29;20575;-86
2022/04/27 08:22:42;;;;;;;3.45;1.77;;;;;;;15.55;46.19;101749.38;4897004;29;20394;-86
2022/04/27 08:25:08;;;;;;;11.02;1.77;;;;;;;15.06;45.83;101742.06;4896558;29;20029;-85
2022/04/27 08:27:33;;;;;;;3.75;1.60;;;;;;;15.63;45.65;101741.75;4897127;29;20036;-84
2022/04/27 08:29:59;;;;;;;3.70;1.70;;;;;;;15.95;45.41;101741.38;4897461;29;20020;-85
2022/04/27 08:32:24;;;;;;;3.67;1.42;;;;;;;16.12;43.58;101748.16;4897175;29;20028;-85
2022/04/27 08:34:49;;;;;;;6.50;1.55;;;;;;;16.29;43.32;101746.09;4911555;29;20025;-85
2022/04/27 08:37:15;;;;;;;4.53;1.33;;;;;;;16.29;43.05;101749.63;4897323;29;20025;-85
2022/04/27 08:39:40;;;;;;;3.78;1.67;;;;;;;16.27;42.75;101743.56;4896827;29;20035;-85
2022/04/27 08:42:06;;;;;;;4.55;1.58;;;;;;;16.13;42.42;101741.03;4897017;29;20036;-86
2022/04/27 08:44:31;;;;;;;5.07;1.42;;;;;;;15.97;42.73;101744.75;4897124;29;20084;-86
2022/04/27 08:46:58;;;;;;;5.10;1.48;;;;;;;16.42;41.51;101739.81;4897094;29;20368;-86
2022/04/27 08:49:24;;;;;;;3.30;1.58;;;;;;;16.72;41.36;101753.63;4896032;29;20044;-86
2022/04/27 08:51:49;;;;;;;2.70;0.82;;;;;;;17.11;41.03;101746.41;4896645;29;20036;-86
2022/04/27 08:54:15;;;;;;;2.90;1.10;;;;;;;17.54;39.76;101748.50;4896604;29;20028;-86
2022/04/27 08:56:41;;;;;;;3.88;1.15;;;;;;;17.86;38.52;101753.16;4896583;29;20484;-87
2022/04/27 08:59:08;;;;;;;6.13;1.08;;;;;;;17.71;38.77;101742.72;4896756;29;20128;-86
2022/04/27 09:01:34;;;;;;;2.95;1.10;;;;;;;17.99;37.43;101743.25;4896722;29;20479;-86
2022/04/27 09:04:15;;;;;;;1.50;0.70;;;;;;;18.16;36.69;101750.75;4896442;29;20048;-86
2022/04/27 09:06:41;;;;;;;4.15;1.02;;;;;;;17.94;36.91;101756.06;4896489;29;20484;-86
2022/04/27 09:09:10;;;;;;;4.00;1.05;;;;;;;18.12;36.69;101745.81;4896040;29;20126;-86
2022/04/27 09:11:37;;;;;;;3.00;0.73;;;;;;;17.97;36.29;101745.19;4895453;29;20020;-86
2022/04/27 09:14:06;;;;;;;5.28;1.45;;;;;;;17.86;36.05;101747.84;4895880;29;20391;-85
2022/04/27 09:22:11;;;;;;;6.05;1.05;;;;;;;18.13;36.35;101761.66;4896429;29;20044;-85
2022/04/27 09:24:58;;;;;;;3.50;1.08;;;;;;;17.95;36.17;101763.06;4891960;29;20488;-86
2022/04/27 09:27:25;;;;;;;2.08;0.77;;;;;;;17.87;36.46;101765.47;4877914;29;20377;-86
2022/04/27 09:29:55;;;;;;;3.40;0.60;;;;;;;18.66;35.73;101760.16;4877600;29;20491;-86
2022/04/27 09:32:21;;;;;;;4.35;1.17;;;;;;;18.51;34.31;101751.59;4891023;29;20166;-86
2022/04/27 09:34:48;;;;;;;3.75;0.88;;;;;;;18.83;34.58;101759.66;4896747;29;20491;-86
2022/04/27 09:37:14;;;;;;;1.80;0.80;;;;;;;18.42;34.73;101755.81;4899490;29;20029;-85
2022/04/27 09:39:40;;;;;;;1.83;0.70;;;;;;;18.07;35.72;101762.13;4900019;29;20884;-85
2022/04/27 09:42:09;;;;;;;2.00;0.77;;;;;;;18.14;36.14;101755.34;4899970;29;20025;-85
2022/04/27 09:44:36;;;;;;;2.80;0.60;;;;;;;17.83;36.55;101756.84;4899933;29;20036;-85
2022/04/27 09:47:03;;;;;;;3.63;0.60;;;;;;;17.68;36.35;101756.25;4899155;29;20037;-85
2022/04/27 09:49:31;;;;;;;2.58;0.85;;;;;;;17.32;36.40;101771.34;4899606;29;20039;-85
2022/04/27 09:51:58;;;;;;;1.77;0.60;;;;;;;17.19;36.90;101760.78;4899889;29;20491;-84
2022/04/27 09:54:25;;;;;;;2.78;1.42;;;;;;;17.43;37.09;101767.88;4900195;29;20171;-85
2022/04/27 09:56:56;;;;;;;2.35;0.70;;;;;;;16.77;37.72;101768.25;4899625;29;20176;-85
2022/04/27 09:59:33;;;;;;;3.05;0.98;;;;;;;17.10;37.06;101768.59;4899403;29;20036;-85
2022/04/27 10:02:09;;;;;;;4.50;0.80;;;;;;;16.82;36.56;101773.25;4899618;29;20579;-86
2022/04/27 10:04:36;;;;;;;5.35;1.10;;;;;;;16.47;37.52;101760.72;4899651;29;20025;-86
2022/04/27 10:07:04;;;;;;;2.78;0.75;;;;;;;16.97;37.22;101776.63;4899555;29;20408;-86
2022/04/27 10:09:30;;;;;;;3.38;1.17;;;;;;;17.02;37.51;101775.31;4898208;29;20039;-85
2022/04/27 10:11:58;;;;;;;5.53;0.90;;;;;;;17.40;37.21;101768.97;4899401;29;20048;-86
2022/04/27 10:14:25;;;;;;;4.38;1.10;;;;;;;17.48;36.80;101775.53;4899461;29;20029;-85
2022/04/27 10:16:51;;;;;;;3.92;0.77;;;;;;;17.10;35.66;101761.50;4899759;29;20035;-86
2022/04/27 10:19:17;;;;;;;7.25;1.10;;;;;;;16.60;36.40;101766.81;4899512;29;20065;-85
2022/04/27 10:21:57;;;;;;;2.42;0.98;;;;;;;16.91;36.60;101756.69;4898885;29;20036;-86
2022/04/27 10:24:34;;;;;;;2.80;0.70;;;;;;;16.94;37.11;101766.22;4898311;29;20387;-85
2022/04/27 10:27:34;;;;;;;1.42;0.98;;;;;;;16.58;37.32;101760.78;4898819;29;20033;-84
2022/04/27 10:30:00;;;;;;;1.73;0.88;;;;;;;16.45;38.20;101767.94;4898811;29;20486;-85
2022/04/27 10:32:50;;;;;;;5.18;0.93;;;;;;;16.57;38.02;101768.88;4898920;29;20036;-85
2022/04/27 10:35:18;;;;;;;3.88;0.98;;;;;;;16.37;38.25;101767.59;4899287;29;20088;-85
2022/04/27 10:37:44;;;;;;;5.60;1.20;;;;;;;16.25;38.77;101758.72;4895890;29;20028;-85
2022/04/27 10:40:34;;;;;;;5.00;1.08;;;;;;;15.89;39.57;101760.34;4898733;29;20035;-86
2022/04/27 10:43:06;;;;;;;4.30;1.05;;;;;;;16.45;39.05;101760.00;4897557;29;20032;-85
2022/04/27 10:45:32;;;;;;;;;;;;;;;16.51;38.82;101756.91;4899138;29;20491;-85
2022/04/27 10:47:58;;;;;;;6.53;1.25;;;;;;;16.50;39.02;101755.19;4896436;29;19927;-86
2022/04/27 10:50:28;;;;;;;8.57;1.30;;;;;;;16.76;38.93;101755.13;4898666;29;20027;-86
2022/04/27 10:52:58;;;;;;;1.92;0.90;;;;;;;16.61;38.07;101755.28;4897249;29;20044;-85
2022/04/27 10:55:35;;;;;;;5.82;1.13;;;;;;;16.58;38.20;101758.13;4898289;29;20051;-85
2022/04/27 10:58:33;;;;;;;5.05;1.13;;;;;;;16.65;38.54;101755.91;4898904;29;20037;-85
2022/04/27 11:00:58;;;;;;;5.43;1.50;;;;;;;16.86;38.51;101764.13;4898493;29;20051;-85
2022/04/27 11:03:28;;;;;;;2.97;0.98;;;;;;;16.91;38.32;101762.00;4898389;29;20029;-85
2022/04/27 11:05:57;;;;;;;4.72;1.35;;;;;;;16.45;38.74;101757.34;4897874;29;20033;-85
2022/04/27 11:08:34;;;;;;;10.40;1.20;;;;;;;16.41;39.58;101764.66;4898199;29;20030;-85
2022/04/27 11:11:08;;;;;;;2.78;1.17;;;;;;;16.70;39.49;101769.66;4896866;29;20037;-85
2022/04/27 11:13:37;;;;;;;2.95;1.40;;;;;;;16.54;39.40;101763.78;4898115;29;20043;-86
2022/04/27 11:16:13;;;;;;;6.60;1.75;;;;;;;16.43;39.32;101759.25;4897375;29;20459;-85
2022/04/27 11:18:59;;;;;;;3.10;1.27;;;;;;;16.30;39.72;101761.91;4897603;29;20060;-82
2022/04/27 11:21:28;;;;;;;5.28;1.42;;;;;;;16.45;39.48;101760.81;4896710;29;20452;-85
2022/04/27 11:23:54;;;;;;;3.90;1.45;;;;;;;16.23;39.52;101758.84;4896817;29;20123;-85
2022/04/27 11:26:19;;;;;;;6.93;1.70;;;;;;;16.19;39.96;101762.69;4897852;29;20036;-85
2022/04/27 11:28:46;;;;;;;14.32;1.77;;;;;;;15.97;40.89;101755.34;4897887;29;20503;-85
2022/04/27 11:31:13;;;;;;;5.40;1.58;;;;;;;16.08;40.92;101754.63;4896611;29;20033;-85
2022/04/27 11:33:40;;;;;;;4.90;1.40;;;;;;;16.40;40.06;101757.66;4896099;29;20035;-85
2022/04/27 11:36:07;;;;;;;7.00;1.58;;;;;;;16.50;40.35;101755.19;4897623;29;20076;-85
2022/04/27 11:38:37;;;;;;;4.88;1.45;;;;;;;16.89;39.83;101757.75;4897707;29;20024;-85
2022/04/27 11:41:03;;;;;;;2.65;1.20;;;;;;;17.23;39.28;101758.75;4896288;29;20527;-85
2022/04/27 11:43:32;;;;;;;4.68;1.88;;;;;;;16.98;39.43;101752.63;4897190;29;20047;-85